Time;durP1;ratioP1;P1;durP2;ratioP2;P2;SDS_P1;SDS_P2;PMS_P1;PMS_P2;Temp;Humidity;BMP_temperature;BMP_pressure;BME280_temperature;BME280_humidity;BME280_pressure;Samples;Min_cycle;Max_cycle;Signal;HPM_P1;HPM_P2
2024/04/13 00:02:20;;;;;;;7.30;5.43;;;14.00;99.90;;;;;;5505948;26;20666;-79
2024/04/13 00:04:46;;;;;;;6.68;4.53;;;14.00;99.90;;;;;;5498775;26;20231;-80
2024/04/13 00:07:15;;;;;;;6.80;4.68;;;14.00;99.90;;;;;;5502988;25;20223;-79
2024/04/13 00:09:41;;;;;;;9.30;5.40;;;13.90;99.90;;;;;;5507685;26;20235;-80
2024/04/13 00:12:09;;;;;;;6.67;4.67;;;13.90;99.90;;;;;;5507975;26;20325;-78
2024/04/13 00:14:35;;;;;;;7.55;4.40;;;13.90;99.90;;;;;;5507980;25;20520;-79
2024/04/13 00:17:07;;;;;;;11.50;4.97;;;13.80;99.90;;;;;;5505418;26;20235;-79
2024/04/13 00:19:35;;;;;;;8.95;6.30;;;13.80;99.90;;;;;;5517791;26;20531;-78
2024/04/13 00:22:04;;;;;;;8.45;4.50;;;13.70;99.90;;;;;;5503252;26;20904;-79
2024/04/13 00:24:32;;;;;;;6.20;4.03;;;13.80;99.90;;;;;;5493260;26;20246;-80
2024/04/13 00:27:01;;;;;;;10.85;3.78;;;13.80;99.90;;;;;;5489229;26;20226;-79
2024/04/13 00:29:27;;;;;;;10.65;4.88;;;13.80;99.90;;;;;;5498786;26;20243;-80
2024/04/13 00:31:55;;;;;;;7.20;4.70;;;13.80;99.90;;;;;;5488263;26;20297;-79
2024/04/13 00:34:25;;;;;;;11.35;5.90;;;13.80;99.90;;;;;;5491229;26;20762;-79
2024/04/13 00:36:53;;;;;;;8.20;5.70;;;13.80;99.90;;;;;;5506462;26;20231;-79
2024/04/13 00:39:19;;;;;;;5.60;4.05;;;13.80;99.90;;;;;;5493019;26;20234;-79
2024/04/13 00:41:48;;;;;;;9.00;4.67;;;13.80;99.90;;;;;;5495873;26;20289;-79
2024/04/13 00:44:14;;;;;;;17.63;5.60;;;13.90;99.90;;;;;;5509077;26;20464;-80
2024/04/13 00:46:43;;;;;;;5.07;4.07;;;13.80;99.90;;;;;;5493282;26;20328;-80
2024/04/13 00:49:13;;;;;;;9.00;4.75;;;13.90;99.90;;;;;;5495531;26;20264;-81
2024/04/13 00:51:46;;;;;;;5.88;4.80;;;13.90;99.90;;;;;;5500718;26;20622;-82
2024/04/13 00:54:14;;;;;;;8.52;4.70;;;13.90;99.90;;;;;;5507372;26;20227;-82
2024/04/13 00:56:43;;;;;;;7.78;5.25;;;13.90;99.90;;;;;;5507238;26;20832;-78
2024/04/13 00:59:09;;;;;;;6.72;4.68;;;13.80;99.90;;;;;;5507266;26;20269;-79
2024/04/13 01:01:39;;;;;;;5.38;4.10;;;13.80;99.90;;;;;;5507008;26;20238;-78
2024/04/13 01:04:05;;;;;;;6.13;4.90;;;13.80;99.90;;;;;;5507397;26;20227;-79
2024/04/13 01:06:33;;;;;;;8.50;4.67;;;13.80;99.90;;;;;;5503408;26;20227;-79
2024/04/13 01:09:03;;;;;;;5.40;4.22;;;13.80;99.90;;;;;;5499726;26;20460;-78
2024/04/13 01:11:34;;;;;;;7.90;5.00;;;13.70;99.90;;;;;;5499321;26;20606;-80
2024/04/13 01:14:01;;;;;;;10.70;4.78;;;13.70;99.90;;;;;;5503072;26;20733;-79
2024/04/13 01:16:30;;;;;;;8.68;5.15;;;13.70;99.90;;;;;;5503517;26;20327;-81
2024/04/13 01:18:56;;;;;;;7.57;4.70;;;13.60;99.90;;;;;;5506618;26;20300;-79
2024/04/13 01:21:25;;;;;;;9.18;5.88;;;13.60;99.90;;;;;;5506716;26;20227;-79
2024/04/13 01:23:59;;;;;;;8.10;4.93;;;13.50;99.90;;;;;;5505544;26;20296;-79
2024/04/13 01:26:29;;;;;;;6.18;4.30;;;13.50;99.90;;;;;;5505370;26;20231;-79
2024/04/13 01:28:55;;;;;;;8.65;4.75;;;13.50;99.90;;;;;;5503438;26;20239;-80
2024/04/13 01:31:25;;;;;;;4.95;4.20;;;13.60;99.90;;;;;;5499253;26;20274;-79
2024/04/13 01:33:51;;;;;;;6.25;4.75;;;13.70;99.90;;;;;;5485567;26;20235;-80
2024/04/13 01:36:20;;;;;;;7.07;4.73;;;13.70;99.90;;;;;;5496267;26;20273;-80
2024/04/13 01:38:46;;;;;;;5.97;4.90;;;13.70;99.90;;;;;;5498175;26;20576;-83
2024/04/13 01:41:17;;;;;;;9.40;4.40;;;13.70;99.90;;;;;;5498577;26;20238;-80
2024/04/13 01:43:43;;;;;;;8.48;4.93;;;13.70;99.90;;;;;;5495339;26;20517;-80
2024/04/13 01:46:12;;;;;;;11.60;4.60;;;13.60;99.90;;;;;;5489847;26;20239;-79
2024/04/13 01:48:38;;;;;;;5.93;4.22;;;13.60;99.90;;;;;;5506539;26;20476;-80
2024/04/13 01:51:07;;;;;;;7.65;5.38;;;13.50;99.90;;;;;;5506804;26;20231;-79
2024/04/13 01:53:33;;;;;;;4.63;3.97;;;13.60;99.90;;;;;;5506755;26;20281;-80
2024/04/13 01:56:01;;;;;;;6.67;4.97;;;13.50;99.90;;;;;;5505979;26;20719;-79
2024/04/13 01:58:30;;;;;;;5.00;4.50;;;13.50;99.90;;;;;;5506581;26;20452;-79
2024/04/13 02:00:58;;;;;;;5.35;3.40;;;13.50;99.90;;;;;;5507820;26;20281;-78
2024/04/13 02:03:24;;;;;;;5.85;4.43;;;13.50;99.90;;;;;;5501768;26;20277;-79
2024/04/13 02:05:53;;;;;;;5.90;4.30;;;13.50;99.90;;;;;;5497124;26;20227;-79
2024/04/13 02:08:19;;;;;;;5.78;4.90;;;13.50;99.90;;;;;;5497811;26;20463;-80
2024/04/13 02:10:48;;;;;;;8.23;5.23;;;13.50;99.90;;;;;;5497681;26;20285;-80
2024/04/13 02:13:14;;;;;;;5.85;4.50;;;13.50;99.90;;;;;;5497202;26;20875;-79
2024/04/13 02:15:50;;;;;;;8.83;5.53;;;13.50;99.90;;;;;;5495202;25;20286;-80
2024/04/13 02:18:17;;;;;;;5.68;3.63;;;13.50;99.90;;;;;;5498554;26;20511;-79
2024/04/13 02:20:46;;;;;;;6.28;3.58;;;13.50;99.90;;;;;;5498067;26;20265;-80
2024/04/13 02:23:12;;;;;;;5.40;3.92;;;13.50;99.90;;;;;;5498094;26;20285;-80
2024/04/13 02:25:40;;;;;;;6.80;4.28;;;13.50;99.90;;;;;;5496275;26;20231;-80
2024/04/13 02:28:06;;;;;;;4.25;3.70;;;13.50;99.90;;;;;;5497819;26;20273;-79
2024/04/13 02:30:35;;;;;;;6.27;3.80;;;13.60;99.90;;;;;;5497656;26;20239;-80
2024/04/13 02:33:04;;;;;;;7.13;4.63;;;13.70;99.90;;;;;;5497634;26;20523;-80
2024/04/13 02:35:33;;;;;;;7.55;5.30;;;13.80;99.90;;;;;;5495709;25;20266;-79
2024/04/13 02:37:59;;;;;;;7.00;6.13;;;13.70;99.90;;;;;;5505258;26;20266;-80
2024/04/13 02:40:28;;;;;;;9.53;6.20;;;13.70;99.90;;;;;;5502784;26;20239;-79
2024/04/13 02:42:54;;;;;;;6.07;5.47;;;13.70;99.90;;;;;;5506125;26;20506;-80
2024/04/13 02:45:26;;;;;;;11.47;5.47;;;13.70;99.90;;;;;;5500689;25;20231;-81
2024/04/13 02:47:52;;;;;;;6.55;4.65;;;13.60;99.90;;;;;;5485182;26;20480;-79
2024/04/13 02:50:23;;;;;;;8.70;5.13;;;13.60;99.90;;;;;;5499720;26;20326;-80
2024/04/13 02:52:50;;;;;;;10.07;5.13;;;13.50;99.90;;;;;;5486423;26;20520;-79
2024/04/13 02:55:18;;;;;;;10.80;5.47;;;13.50;99.90;;;;;;5503117;26;20615;-80
2024/04/13 02:57:44;;;;;;;7.78;4.65;;;13.50;99.90;;;;;;5508868;26;20231;-78
2024/04/13 03:00:14;;;;;;;12.50;5.00;;;13.50;99.90;;;;;;5511234;26;20301;-78
2024/04/13 03:02:39;;;;;;;9.52;4.95;;;13.50;99.90;;;;;;5510454;26;20456;-79
2024/04/13 03:05:09;;;;;;;6.90;4.50;;;13.50;99.90;;;;;;5506462;26;20259;-79
2024/04/13 03:07:37;;;;;;;8.75;5.93;;;13.50;99.90;;;;;;5510809;26;20496;-80
2024/04/13 03:10:06;;;;;;;11.05;5.40;;;13.40;99.90;;;;;;5509809;26;20289;-79
2024/04/13 03:12:32;;;;;;;9.10;6.68;;;13.40;99.90;;;;;;5509459;26;20235;-78
2024/04/13 03:15:01;;;;;;;9.60;5.43;;;13.40;99.90;;;;;;5508818;26;20311;-79
2024/04/13 03:17:30;;;;;;;6.55;4.80;;;13.50;99.90;;;;;;5510092;26;20580;-80
2024/04/13 03:19:58;;;;;;;7.22;5.35;;;13.50;99.90;;;;;;5506780;26;20298;-80
2024/04/13 03:22:24;;;;;;;7.47;5.03;;;13.50;99.90;;;;;;5506541;26;20227;-80
2024/04/13 03:24:56;;;;;;;7.50;6.10;;;13.50;99.90;;;;;;5507776;26;20235;-80
2024/04/13 03:27:22;;;;;;;6.57;5.53;;;13.50;99.90;;;;;;5506765;26;20844;-79
2024/04/13 03:29:51;;;;;;;7.90;6.13;;;13.50;99.90;;;;;;5505909;26;20270;-78
2024/04/13 03:32:17;;;;;;;8.23;6.03;;;13.50;99.90;;;;;;5500256;26;20270;-78
2024/04/13 03:34:46;;;;;;;7.47;5.33;;;13.40;99.90;;;;;;5499821;26;20566;-79
2024/04/13 03:37:14;;;;;;;8.00;5.30;;;13.40;99.90;;;;;;5499307;26;20448;-78
2024/04/13 03:39:43;;;;;;;8.57;5.90;;;13.40;99.90;;;;;;5502278;26;20239;-80
2024/04/13 03:42:14;;;;;;;6.15;5.35;;;13.40;99.90;;;;;;5499814;26;20835;-78
2024/04/13 03:44:40;;;;;;;7.15;4.97;;;13.40;99.90;;;;;;5494061;26;20232;-80
2024/04/13 03:47:09;;;;;;;9.80;6.63;;;13.40;99.90;;;;;;5505425;26;20227;-80
2024/04/13 03:49:35;;;;;;;10.52;5.47;;;13.40;99.90;;;;;;5502875;26;20464;-81
2024/04/13 03:52:04;;;;;;;8.97;5.60;;;13.40;99.90;;;;;;5512355;25;20231;-79
2024/04/13 03:54:30;;;;;;;5.70;5.07;;;13.40;99.90;;;;;;5512113;26;20504;-80
2024/04/13 03:56:58;;;;;;;6.18;5.15;;;13.40;99.90;;;;;;5511342;26;20278;-79
2024/04/13 03:59:27;;;;;;;10.77;6.03;;;13.50;99.90;;;;;;5512070;26;20270;-78
2024/04/13 04:02:00;;;;;;;6.10;5.30;;;13.50;99.90;;;;;;5508469;25;20273;-78
2024/04/13 04:04:26;;;;;;;9.32;5.80;;;13.40;99.90;;;;;;5505379;26;20231;-80
2024/04/13 04:06:54;;;;;;;8.00;6.18;;;13.40;99.90;;;;;;5507634;26;20298;-79
2024/04/13 04:09:21;;;;;;;6.65;4.45;;;13.40;99.90;;;;;;5507561;26;20277;-80
2024/04/13 04:11:50;;;;;;;8.02;5.18;;;13.50;99.90;;;;;;5505908;25;20787;-80
2024/04/13 04:14:16;;;;;;;7.43;5.50;;;13.50;99.90;;;;;;5506638;26;20228;-79
2024/04/13 04:16:47;;;;;;;6.13;4.90;;;13.40;99.90;;;;;;5507147;25;20235;-80
2024/04/13 04:19:13;;;;;;;6.07;4.95;;;13.40;99.90;;;;;;5506891;26;20281;-81
2024/04/13 04:21:41;;;;;;;8.00;4.87;;;13.40;99.90;;;;;;5503765;25;20227;-79
2024/04/13 04:24:07;;;;;;;8.13;5.25;;;13.50;99.90;;;;;;5504200;25;20524;-80
2024/04/13 04:26:36;;;;;;;5.40;4.90;;;13.40;99.90;;;;;;5505427;26;20215;-78
2024/04/13 04:29:03;;;;;;;7.00;5.35;;;13.40;99.90;;;;;;5506121;25;20471;-81
2024/04/13 04:31:31;;;;;;;7.13;5.70;;;13.40;99.90;;;;;;5505587;26;20284;-80
2024/04/13 04:34:00;;;;;;;7.25;5.90;;;13.40;99.90;;;;;;5505403;26;20235;-82
2024/04/13 04:36:28;;;;;;;9.05;6.10;;;13.40;99.90;;;;;;5503967;26;20270;-80
2024/04/13 04:38:54;;;;;;;8.63;5.13;;;13.40;99.90;;;;;;5504820;26;20231;-81
2024/04/13 04:41:23;;;;;;;10.50;5.53;;;13.40;99.90;;;;;;5508441;26;20231;-80
2024/04/13 04:43:49;;;;;;;7.20;5.63;;;13.50;99.90;;;;;;5506880;26;20464;-80
2024/04/13 04:46:19;;;;;;;6.65;4.90;;;13.40;99.90;;;;;;5506107;26;20239;-79
2024/04/13 04:48:47;;;;;;;8.10;4.43;;;13.50;99.90;;;;;;5500336;26;20232;-80
2024/04/13 04:51:18;;;;;;;9.18;6.05;;;13.50;99.90;;;;;;5503170;26;20234;-78
2024/04/13 04:53:44;;;;;;;7.50;4.40;;;13.60;99.90;;;;;;5491811;26;20235;-80
2024/04/13 04:56:13;;;;;;;9.50;5.37;;;13.70;99.90;;;;;;5500262;26;20278;-80
2024/04/13 04:58:39;;;;;;;6.80;5.10;;;13.80;99.90;;;;;;5502962;26;20460;-81
2024/04/13 05:01:08;;;;;;;7.10;5.63;;;13.80;99.90;;;;;;5494808;26;20768;-81
2024/04/13 05:03:33;;;;;;;6.72;4.68;;;13.80;99.90;;;;;;5502236;26;20523;-78
2024/04/13 05:06:02;;;;;;;7.10;4.63;;;14.00;99.90;;;;;;5500933;26;20239;-78
2024/04/13 05:08:31;;;;;;;8.65;4.72;;;14.10;99.90;;;;;;5497405;26;20457;-80
2024/04/13 05:11:00;;;;;;;11.57;5.18;;;14.10;99.90;;;;;;5501511;26;20239;-80
2024/04/13 05:13:28;;;;;;;10.10;4.95;;;14.30;99.90;;;;;;5502578;26;20215;-79
2024/04/13 05:15:56;;;;;;;6.55;5.18;;;14.40;99.90;;;;;;5487935;25;20231;-80
2024/04/13 05:18:23;;;;;;;7.05;5.00;;;14.50;99.90;;;;;;5499372;26;20666;-77
2024/04/13 05:20:51;;;;;;;6.30;4.75;;;14.60;99.90;;;;;;5499077;26;20289;-81
2024/04/13 05:23:17;;;;;;;6.75;4.07;;;14.60;99.90;;;;;;5501360;26;20230;-81
2024/04/13 05:25:49;;;;;;;9.93;5.43;;;14.70;99.90;;;;;;5501391;26;20269;-80
2024/04/13 05:28:15;;;;;;;7.28;4.82;;;14.70;99.90;;;;;;5501996;26;20523;-79
2024/04/13 05:30:55;;;;;;;6.33;4.43;;;14.90;99.90;;;;;;5501172;26;20292;-80
2024/04/13 05:33:21;;;;;;;5.00;4.33;;;15.00;99.90;;;;;;5501340;25;20523;-81
2024/04/13 05:35:50;;;;;;;4.87;4.17;;;15.30;99.90;;;;;;5501592;26;20995;-81
2024/04/13 05:38:16;;;;;;;6.03;3.97;;;15.60;99.90;;;;;;5493889;25;20468;-79
2024/04/13 05:40:48;;;;;;;8.70;4.37;;;16.00;99.90;;;;;;5499434;26;20240;-81
2024/04/13 05:43:14;;;;;;;6.83;4.47;;;16.20;99.90;;;;;;5498799;26;20525;-81
2024/04/13 05:45:43;;;;;;;4.77;4.20;;;16.20;99.90;;;;;;5498243;25;20576;-79
2024/04/13 05:48:09;;;;;;;6.80;4.17;;;16.20;99.90;;;;;;5499784;26;20540;-82
2024/04/13 05:50:38;;;;;;;5.60;4.40;;;16.30;99.90;;;;;;5502478;26;20474;-81
2024/04/13 05:53:04;;;;;;;5.27;3.60;;;16.40;99.90;;;;;;5507157;26;20520;-79
2024/04/13 05:55:33;;;;;;;8.50;4.03;;;16.60;99.90;;;;;;5497677;26;20932;-79
2024/04/13 05:58:02;;;;;;;10.50;5.23;;;16.70;99.90;;;;;;5506450;26;20460;-80
2024/04/13 06:00:31;;;;;;;4.63;4.17;;;16.70;99.90;;;;;;5503884;26;20511;-79
2024/04/13 06:02:57;;;;;;;8.37;4.70;;;16.70;99.90;;;;;;5511822;26;20516;-78
2024/04/13 06:05:26;;;;;;;5.30;3.70;;;16.70;99.90;;;;;;5499008;26;20463;-79
2024/04/13 06:07:52;;;;;;;7.80;4.13;;;16.90;99.90;;;;;;5501578;26;20468;-79
2024/04/13 06:10:21;;;;;;;6.60;4.47;;;16.90;99.90;;;;;;5501937;26;20529;-81
2024/04/13 06:12:48;;;;;;;7.73;3.70;;;17.00;99.90;;;;;;5505055;26;20467;-79
2024/04/13 06:15:40;;;;;;;6.20;4.07;;;17.20;99.90;;;;;;5503743;26;20460;-85
2024/04/13 06:18:06;;;;;;;6.27;4.33;;;17.50;99.90;;;;;;5491939;26;20600;-84
2024/04/13 06:20:36;;;;;;;6.63;3.80;;;17.70;99.90;;;;;;5506837;26;20456;-81
2024/04/13 06:23:02;;;;;;;8.83;3.67;;;17.80;99.90;;;;;;5516154;26;20432;-80
2024/04/13 06:25:31;;;;;;;5.43;3.43;;;18.10;99.90;;;;;;5516095;26;20496;-84
2024/04/13 06:27:57;;;;;;;6.03;4.00;;;18.50;99.90;;;;;;5515748;26;20436;-83
2024/04/13 06:30:28;;;;;;;5.87;3.70;;;18.80;99.90;;;;;;5516255;25;20521;-82
2024/04/13 06:32:54;;;;;;;4.83;3.40;;;19.20;99.90;;;;;;5516014;26;20444;-79
2024/04/13 06:35:23;;;;;;;5.60;3.57;;;19.50;99.90;;;;;;5506748;25;20461;-80
2024/04/13 06:37:49;;;;;;;4.57;3.47;;;19.60;99.90;;;;;;5467115;26;20457;-81
2024/04/13 06:40:18;;;;;;;9.30;3.83;;;19.40;99.90;;;;;;5498066;25;20475;-78
2024/04/13 06:42:44;;;;;;;11.00;3.93;;;19.30;99.90;;;;;;5506458;26;20468;-84
2024/04/13 06:45:18;;;;;;;7.03;3.30;;;19.40;99.90;;;;;;5505669;26;20508;-86
2024/04/13 06:47:48;;;;;;;5.57;3.50;;;19.30;99.90;;;;;;5508798;26;20463;-82
2024/04/13 06:50:17;;;;;;;4.50;2.83;;;19.20;99.90;;;;;;5502835;21;20552;-69
2024/04/13 06:52:43;;;;;;;5.13;2.87;;;19.30;99.90;;;;;;5475283;26;20474;-71
2024/04/13 06:55:12;;;;;;;7.07;3.60;;;19.40;99.90;;;;;;5490113;26;20474;-68
2024/04/13 06:57:38;;;;;;;4.90;3.40;;;19.70;99.90;;;;;;5490634;26;20467;-69
2024/04/13 07:00:09;;;;;;;5.00;3.00;;;19.70;99.90;;;;;;5489849;26;21010;-70
2024/04/13 07:02:35;;;;;;;9.67;3.07;;;19.70;99.90;;;;;;5491049;26;20541;-70
2024/04/13 07:05:07;;;;;;;5.77;3.57;;;19.90;99.90;;;;;;5490270;26;20927;-69
2024/04/13 07:07:33;;;;;;;4.57;3.10;;;20.10;99.90;;;;;;5486306;26;20853;-69
2024/04/13 07:10:01;;;;;;;10.43;3.70;;;20.10;99.90;;;;;;5490962;26;20524;-70
2024/04/13 07:12:28;;;;;;;7.00;3.37;;;20.40;99.90;;;;;;5491161;26;20517;-67
2024/04/13 07:14:56;;;;;;;4.87;3.13;;;20.00;99.90;;;;;;5490123;26;20470;-69
2024/04/13 07:17:22;;;;;;;9.10;3.50;;;20.00;99.90;;;;;;5491277;26;20520;-69
2024/04/13 07:19:51;;;;;;;7.40;3.37;;;19.90;99.90;;;;;;5490794;26;20584;-72
2024/04/13 07:22:20;;;;;;;7.67;4.23;;;20.10;99.90;;;;;;5490140;26;20529;-70
2024/04/13 07:24:48;;;;;;;9.20;4.03;;;20.20;99.90;;;;;;5491568;26;20468;-69
2024/04/13 07:27:14;;;;;;;7.27;4.10;;;20.00;99.90;;;;;;5490407;26;20461;-69
2024/04/13 07:29:43;;;;;;;9.40;3.53;;;20.10;99.90;;;;;;5491071;26;20591;-70
2024/04/13 07:32:09;;;;;;;4.23;3.33;;;20.00;99.90;;;;;;5490569;26;20527;-70
2024/04/13 07:34:40;;;;;;;5.33;4.27;;;20.50;99.90;;;;;;5491023;26;20580;-71
2024/04/13 07:37:06;;;;;;;6.83;3.80;;;20.60;99.90;;;;;;5490471;26;20467;-70
2024/04/13 07:39:38;;;;;;;7.60;3.27;;;21.00;99.90;;;;;;5491343;26;20575;-70
2024/04/13 07:42:04;;;;;;;4.40;3.20;;;20.70;99.90;;;;;;5490243;26;20843;-69
2024/04/13 07:44:33;;;;;;;7.83;4.10;;;20.60;99.90;;;;;;5491071;26;20472;-68
2024/04/13 07:46:59;;;;;;;6.83;3.90;;;20.40;99.90;;;;;;5475934;26;20592;-70
2024/04/13 07:49:28;;;;;;;5.50;3.00;;;20.20;99.90;;;;;;5499902;26;20557;-71
2024/04/13 07:51:54;;;;;;;17.13;4.27;;;20.10;99.90;;;;;;5490185;26;20466;-70
2024/04/13 07:54:23;;;;;;;8.20;3.70;;;20.20;99.90;;;;;;5490519;26;20466;-70
2024/04/13 07:56:52;;;;;;;6.70;3.83;;;20.20;99.90;;;;;;5489494;26;20460;-70
2024/04/13 07:59:21;;;;;;;6.00;3.70;;;20.30;99.90;;;;;;5490892;26;20470;-70
2024/04/13 08:01:47;;;;;;;5.27;3.53;;;20.20;99.90;;;;;;5490378;26;20522;-69
2024/04/13 08:04:16;;;;;;;5.43;3.97;;;20.20;99.90;;;;;;5489544;26;20462;-69
2024/04/13 08:06:41;;;;;;;7.93;4.20;;;20.40;99.90;;;;;;5489651;26;20521;-69
2024/04/13 08:09:10;;;;;;;8.33;4.23;;;20.40;99.90;;;;;;5490567;26;20464;-70
2024/04/13 08:11:36;;;;;;;7.03;3.50;;;20.30;99.90;;;;;;5490510;26;20475;-69
2024/04/13 08:14:08;;;;;;;7.10;3.17;;;20.40;99.90;;;;;;5491038;26;21117;-69
2024/04/13 08:16:34;;;;;;;6.27;3.03;;;20.80;99.90;;;;;;5490072;26;20527;-68
2024/04/13 08:19:04;;;;;;;6.33;4.00;;;21.20;99.90;;;;;;5490151;26;20496;-71
2024/04/13 08:21:30;;;;;;;7.93;3.83;;;21.60;99.90;;;;;;5490186;26;20520;-69
2024/04/13 08:23:58;;;;;;;7.57;3.60;;;21.90;99.90;;;;;;5490196;26;20556;-68
2024/04/13 08:26:24;;;;;;;7.50;3.23;;;22.30;99.90;;;;;;5490009;26;20524;-68
2024/04/13 08:28:53;;;;;;;5.73;3.77;;;22.30;99.40;;;;;;5490477;26;20811;-69
2024/04/13 08:31:22;;;;;;;11.80;4.43;;;22.30;99.60;;;;;;5489673;26;20845;-70
2024/04/13 08:33:50;;;;;;;5.93;3.40;;;22.10;99.50;;;;;;5487196;26;20839;-70
2024/04/13 08:36:16;;;;;;;8.80;3.00;;;21.90;99.50;;;;;;5478583;26;21001;-68
2024/04/13 08:38:47;;;;;;;5.40;3.57;;;22.40;99.70;;;;;;5477974;26;20464;-70
2024/04/13 08:41:25;;;;;;;4.97;2.67;;;22.40;99.50;;;;;;5477512;26;20774;-70
2024/04/13 08:43:53;;;;;;;5.83;3.70;;;22.60;98.90;;;;;;5487316;26;20524;-70
2024/04/13 08:46:24;;;;;;;6.40;3.70;;;22.80;99.10;;;;;;5473264;26;21063;-68
2024/04/13 08:48:53;;;;;;;6.53;3.30;;;22.90;98.60;;;;;;5484946;26;20464;-70
2024/04/13 08:51:20;;;;;;;4.93;3.67;;;23.50;98.40;;;;;;5489598;26;20872;-70
2024/04/13 08:53:51;;;;;;;7.97;3.90;;;24.20;96.60;;;;;;5489103;26;20580;-70
2024/04/13 08:56:23;;;;;;;6.57;4.23;;;23.80;96.40;;;;;;5488669;26;20529;-70
2024/04/13 08:58:51;;;;;;;4.20;3.40;;;23.70;96.90;;;;;;5488681;26;20511;-70
2024/04/13 09:01:27;;;;;;;5.13;4.00;;;23.20;97.30;;;;;;5487382;26;20574;-70
2024/04/13 09:03:54;;;;;;;6.73;4.20;;;23.00;97.70;;;;;;5489126;26;20471;-69
2024/04/13 09:06:22;;;;;;;6.70;4.10;;;23.10;98.10;;;;;;5489239;26;20965;-70
2024/04/13 09:08:49;;;;;;;7.90;4.17;;;23.20;97.50;;;;;;5488673;26;20533;-70
2024/04/13 09:11:22;;;;;;;8.10;3.70;;;23.00;97.90;;;;;;5489214;26;20552;-70
2024/04/13 09:13:49;;;;;;;5.50;3.67;;;23.00;98.00;;;;;;5489293;26;20468;-70
2024/04/13 09:16:19;;;;;;;6.60;4.83;;;23.20;98.00;;;;;;5488563;26;20564;-71
2024/04/13 09:18:48;;;;;;;7.17;4.43;;;23.00;98.00;;;;;;5489230;26;20939;-72
2024/04/13 09:21:17;;;;;;;6.87;3.70;;;22.90;98.40;;;;;;5489027;26;20476;-69
2024/04/13 09:23:44;;;;;;;8.40;4.13;;;23.10;98.10;;;;;;5489008;26;20811;-69
2024/04/13 09:26:13;;;;;;;6.00;4.30;;;23.60;98.00;;;;;;5487871;26;20552;-69
2024/04/13 09:28:40;;;;;;;7.53;4.50;;;24.10;96.70;;;;;;5488718;26;21019;-71
2024/04/13 09:31:11;;;;;;;5.33;3.60;;;24.80;95.90;;;;;;5488994;26;21037;-71
2024/04/13 09:33:37;;;;;;;6.20;4.30;;;24.80;95.90;;;;;;5489491;26;20480;-71
2024/04/13 09:36:10;;;;;;;10.30;4.43;;;24.20;95.60;;;;;;5488391;26;21069;-68
2024/04/13 09:38:36;;;;;;;9.73;4.30;;;23.90;96.00;;;;;;5489059;26;20528;-70
2024/04/13 09:41:09;;;;;;;11.20;4.50;;;23.30;96.40;;;;;;5488621;26;20566;-68
2024/04/13 09:43:35;;;;;;;7.50;4.13;;;23.00;97.00;;;;;;5488728;26;20814;-70
2024/04/13 09:46:05;;;;;;;12.40;5.30;;;22.90;97.40;;;;;;5487293;26;20523;-69
2024/04/13 09:48:31;;;;;;;7.10;4.00;;;22.80;97.70;;;;;;5498927;26;20459;-70
2024/04/13 09:51:01;;;;;;;5.40;3.53;;;23.10;98.10;;;;;;5488470;26;20473;-71
2024/04/13 09:53:30;;;;;;;7.67;4.70;;;22.70;97.80;;;;;;5488258;26;20453;-69
2024/04/13 09:56:00;;;;;;;4.43;3.53;;;22.60;98.20;;;;;;5487370;26;21009;-70
2024/04/13 09:58:26;;;;;;;6.10;4.03;;;22.30;98.50;;;;;;5488473;26;20468;-69
2024/04/13 10:00:55;;;;;;;5.70;3.40;;;22.10;98.60;;;;;;5488430;26;20520;-70
2024/04/13 10:03:22;;;;;;;8.20;3.10;;;22.00;99.00;;;;;;5488200;26;20823;-70
2024/04/13 10:05:50;;;;;;;5.60;3.57;;;22.00;99.20;;;;;;5487515;26;20480;-69
2024/04/13 10:08:16;;;;;;;6.67;3.80;;;22.00;98.90;;;;;;5488451;26;20518;-71
2024/04/13 10:10:50;;;;;;;7.80;3.20;;;22.20;98.90;;;;;;5487840;26;20511;-70
2024/04/13 10:13:23;;;;;;;6.90;2.80;;;22.20;98.30;;;;;;5487266;26;20468;-70
2024/04/13 10:15:52;;;;;;;6.50;3.30;;;22.40;98.30;;;;;;5487156;26;21065;-70
2024/04/13 10:18:19;;;;;;;6.63;3.73;;;22.50;98.30;;;;;;5488076;26;20523;-70
2024/04/13 10:20:49;;;;;;;4.63;3.33;;;22.70;98.00;;;;;;5487372;26;21058;-71
2024/04/13 10:23:15;;;;;;;7.60;3.67;;;22.70;97.60;;;;;;5488023;26;20531;-71
2024/04/13 10:25:43;;;;;;;8.30;3.53;;;22.90;97.60;;;;;;5499253;21;20507;-83
2024/04/13 10:28:20;;;;;;;8.10;3.73;;;22.60;97.80;;;;;;5510193;25;20465;-81
2024/04/13 10:30:50;;;;;;;5.10;3.30;;;22.80;97.60;;;;;;5509388;26;20456;-84
2024/04/13 10:33:20;;;;;;;5.27;3.13;;;22.90;97.00;;;;;;5510753;25;20456;-81
2024/04/13 10:35:57;;;;;;;4.60;3.43;;;22.40;97.20;;;;;;5502583;26;20467;-83
2024/04/13 10:38:24;;;;;;;5.20;3.60;;;22.20;97.90;;;;;;5506234;25;20435;-83
2024/04/13 10:40:52;;;;;;;4.40;3.27;;;22.10;98.00;;;;;;5505732;26;20468;-82
2024/04/13 10:43:22;;;;;;;7.53;4.17;;;22.10;98.30;;;;;;5488999;26;21093;-81
2024/04/13 10:45:56;;;;;;;6.80;3.80;;;22.10;98.10;;;;;;5498321;26;20452;-79
2024/04/13 10:48:23;;;;;;;8.37;4.53;;;22.00;98.20;;;;;;5508752;26;20458;-81
2024/04/13 10:50:56;;;;;;;5.63;3.63;;;21.90;98.60;;;;;;5502207;26;20508;-83
2024/04/13 10:53:23;;;;;;;3.93;3.30;;;21.90;98.40;;;;;;5498868;25;20505;-83
2024/04/13 10:55:55;;;;;;;9.07;3.07;;;22.10;98.60;;;;;;5499305;26;20468;-83
2024/04/13 10:58:27;;;;;;;6.53;3.80;;;22.50;98.00;;;;;;5501106;26;20468;-81
2024/04/13 11:00:57;;;;;;;5.10;3.20;;;22.30;97.80;;;;;;5502011;26;20460;-80
2024/04/13 11:03:27;;;;;;;4.80;3.73;;;22.30;98.20;;;;;;5503200;26;20480;-82
2024/04/13 11:05:53;;;;;;;5.87;3.90;;;22.60;97.60;;;;;;5503058;26;20561;-83
2024/04/13 11:08:23;;;;;;;5.17;3.80;;;22.30;97.50;;;;;;5503507;26;20484;-82
2024/04/13 11:10:52;;;;;;;6.77;4.03;;;22.10;97.70;;;;;;5502980;26;20472;-81
2024/04/13 11:13:21;;;;;;;4.80;4.07;;;22.30;97.80;;;;;;5500164;26;20511;-82
2024/04/13 11:15:50;;;;;;;5.20;3.83;;;22.50;98.00;;;;;;5501844;26;20568;-82
2024/04/13 11:18:19;;;;;;;4.80;4.30;;;22.50;97.30;;;;;;5503306;26;20475;-82
2024/04/13 11:20:51;;;;;;;5.30;3.67;;;22.50;97.10;;;;;;5494677;26;20457;-81
2024/04/13 11:23:20;;;;;;;10.87;4.80;;;22.70;97.50;;;;;;5500853;26;20460;-83
2024/04/13 11:25:47;;;;;;;6.07;4.00;;;22.50;96.10;;;;;;5506572;26;20461;-81
2024/04/13 11:28:15;;;;;;;5.40;3.30;;;22.30;96.00;;;;;;5507906;26;20520;-82
2024/04/13 11:30:42;;;;;;;4.10;2.60;;;22.30;96.00;;;;;;5506026;26;20505;-82
2024/04/13 11:33:14;;;;;;;5.60;3.80;;;22.30;95.80;;;;;;5513945;25;20512;-82
2024/04/13 11:35:40;;;;;;;7.13;4.33;;;22.30;95.80;;;;;;5512995;26;20501;-82
2024/04/13 11:38:09;;;;;;;6.80;3.77;;;22.40;95.50;;;;;;5513471;26;20448;-82
2024/04/13 11:40:35;;;;;;;6.10;3.63;;;22.30;95.70;;;;;;5513412;25;20600;-82
2024/04/13 11:43:05;;;;;;;5.00;3.30;;;22.30;95.60;;;;;;5513754;25;20460;-83
2024/04/13 11:45:31;;;;;;;10.10;4.27;;;22.30;95.80;;;;;;5512588;25;20448;-83
2024/04/13 11:48:00;;;;;;;6.27;3.70;;;22.30;96.00;;;;;;5512924;26;20468;-82
2024/04/13 11:50:29;;;;;;;6.23;2.70;;;22.20;95.60;;;;;;5519274;26;20460;-82
2024/04/13 11:52:59;;;;;;;4.63;2.70;;;22.10;95.80;;;;;;5493789;26;21043;-82
2024/04/13 11:55:29;;;;;;;5.67;3.30;;;22.10;95.70;;;;;;5507908;26;20467;-82
2024/04/13 11:57:57;;;;;;;3.00;2.70;;;22.20;96.00;;;;;;5508422;26;20538;-83
2024/04/13 12:00:23;;;;;;;6.20;2.87;;;22.10;96.30;;;;;;5507554;26;20471;-81
2024/04/13 12:02:54;;;;;;;5.30;3.27;;;22.10;96.70;;;;;;5503674;26;20475;-82
2024/04/13 12:05:20;;;;;;;4.10;2.80;;;22.20;96.80;;;;;;5501191;26;20472;-82
2024/04/13 12:07:51;;;;;;;5.77;2.77;;;22.30;97.10;;;;;;5501646;26;20515;-83
2024/04/13 12:10:17;;;;;;;4.33;2.80;;;22.50;97.30;;;;;;5501577;26;20468;-83
2024/04/13 12:12:46;;;;;;;5.23;3.77;;;22.80;97.20;;;;;;5505943;26;20472;-82
2024/04/13 12:15:12;;;;;;;8.13;3.40;;;22.60;97.20;;;;;;5508857;26;20512;-82
2024/04/13 12:17:40;;;;;;;7.80;3.63;;;22.50;97.60;;;;;;5507907;26;20472;-83
2024/04/13 12:20:07;;;;;;;4.40;3.60;;;22.70;97.90;;;;;;5507818;26;20529;-83
2024/04/13 12:22:36;;;;;;;6.07;3.53;;;22.90;97.80;;;;;;5507221;26;20476;-82
2024/04/13 12:25:08;;;;;;;5.83;3.67;;;22.80;97.50;;;;;;5506050;26;20468;-82
2024/04/13 12:27:37;;;;;;;5.40;3.53;;;22.60;97.70;;;;;;5502750;26;20540;-82
2024/04/13 12:30:04;;;;;;;4.93;3.13;;;22.70;98.20;;;;;;5485626;26;20467;-82
2024/04/13 12:32:32;;;;;;;5.07;4.40;;;22.60;98.20;;;;;;5501500;26;20472;-83
2024/04/13 12:34:58;;;;;;;5.60;3.70;;;22.60;98.60;;;;;;5498447;26;20464;-82
2024/04/13 12:37:27;;;;;;;3.43;2.93;;;22.40;98.40;;;;;;5498273;25;20588;-82
2024/04/13 12:39:53;;;;;;;4.40;3.30;;;22.50;98.80;;;;;;5508527;25;20456;-83
2024/04/13 12:42:25;;;;;;;6.57;3.63;;;22.60;99.00;;;;;;5500503;26;20520;-83
2024/04/13 12:44:52;;;;;;;7.17;4.47;;;22.70;98.60;;;;;;5495825;26;20468;-83
2024/04/13 12:47:20;;;;;;;8.70;4.23;;;22.60;99.00;;;;;;5499514;26;20506;-83
2024/04/13 12:49:46;;;;;;;5.67;3.90;;;22.70;99.20;;;;;;5517251;26;20536;-82
2024/04/13 12:52:16;;;;;;;6.97;3.43;;;22.80;99.30;;;;;;5506186;26;20460;-82